Loggieville, Canada
Current Conditions -  °F | °C
As of 11:00 PM on Saturday 22 Nov 2014 (Local Time) from CZBF Reporting Station
Overcast Overcast  
Wind Chill: 22°   Ceiling: 7000
Heat Index: 30°   Visibility: 15mi
Dew Point: 21°   Wind: 9mph
Humidity: 69%   Direction: 240°WSW
Pressure: 29.72"   Gusts: NA
Location:  47.07°N, 65.38°W
Report Text: CZBF 230300Z 24008KT 15SM OVC070 M01/M06 A2972 RMK AC8 SLP068
Loading
Personal Weather Stations






























Interactive Weather Map New forecast layout! Learn more

10-Day Weather Forecast

Advertisements
Track Severe Weather on mobile